CheckWX is a tool to help pilots better visualize weather data.  It is not intended as a substitute for an official pre-flight weather briefing.

22:59:40 UTC

DTTF TAF
Gafsa Ksar International Airport
Gafsa, Tunisia
TAF DTTF 111500Z 1116/1201 23008KT CAVOK PROB40 TEMPO 1116/1122 VRB18G28KT 4000 TS RA FEW030CB

Jul-11@
16:00 UTC

Jul-11 @ 16:00 UTC

Jul-12@
01:00 UTC

Jul-12 @ 01:00 UTC

TAF DTTF 111500Z 1116/1201 23008KT CAVOK
Wind
  • 230° at 8 KTS
Conditions
No significant weather
Cloud Levels
  • No significant clouds

Jul-11@
16:00 UTC

Jul-11 @ 16:00 UTC

Jul-11@
22:00 UTC

Jul-11 @ 22:00 UTC

PROB40 TEMPO 1116/1122 VRB18G28KT 4000 TS RA FEW030CB

Expired

Wind
  • Variable at 18 KTS
  • {Gusting to 28 KTS
Conditions
Thunderstorm, Rain
Cloud Levels
  • Few at 3,000' AGL